Trivandrum, India

10:38 AM IST on October 26, 2014 (GMT +0530)
Trivandrum | Change Station
CLOSE
Current Station
Airport
Location: Thiruvananthapuram Airport,
Elevation: 13 ft
Nearby Weather Stations

Elev 13 ft 8.47 °N, 76.95 °E | Updated 28 minutes ago

Mostly Cloudy
Mostly Cloudy
86 °F
Feels Like 97 °F
N
6
Wind Variable Wind from West

Today
High -- | Low -- °F
--% Chance of Precip.
Yesterday
High -- | Low -- °F
Precip. -- in
6:10 AM 6:02 PM
Waxing Crescent, 6% visible
Pressure 29.92 in
Visibility 3.7 miles
Clouds Scattered Clouds 1500 ft
Mostly Cloudy 9000 ft
Heat Index 97 °F
Dew Point 77 °F
Humidity 74%
Rainfall 0.00 in
Snow Depth Not available.
UV 5 out of 12
Pollen Not available.
Air Quality Not available.
Flu Activity Not available.
METAR VOTV 260440Z 26005KT 6000 SCT015 BKN090 30/25 Q1013 NOSIG

More Conditions Fewer Conditions

Pressure 29.92 in
Visibility 3.7 miles
Clouds Scattered Clouds 1500 ft
Mostly Cloudy 9000 ft
Heat Index 97 °F
Dew Point 77 °F
Humidity 74%
Rainfall 0.00 in
Snow Depth Not available.
UV 5 out of 12
Pollen Not available.
Air Quality Not available.
Flu Activity Not available.
METAR VOTV 260440Z 26005KT 6000 SCT015 BKN090 30/25 Q1013 NOSIG

More Conditions Fewer Conditions

10-Day Weather Forecast

Almanac

Astronomy

Oct. 26, 2014 Rise Set
Actual Time 6:10 AM IST 6:02 PM IST
Civil Twilight 5:48 AM IST 6:23 PM IST
Nautical Twilight 5:24 AM IST 6:48 PM IST
Astronomical Twilight 4:59 AM IST 7:12 PM IST
Moon 8:04 AM IST 8:08 PM IST
Length of Visible Light 12h 34m
Length of Day
11h 51m
Tomorrow will be 0m 24s shorter.
Waxing Crescent, 6% of the Moon is Illuminated
Today
Waxing Crescent
Oct 30
First Quarter
Nov 6
Full
Nov 14
Last Quarter
Nov 22
New

Yesterday's Extremes

Country Highs Country Lows

Community

WunderPhotos

Upload Photos

1,765,111 photos uploaded!

Nearby

Snow Depth

Not available.

Earthquake Activity

City Distance Mag. Time & Date
No recent earthquake activity has been reported nearby.
Minimum magnitude displayed is 2.5.

Coastal Water Temperatures

Place Temperature
No Stations Reporting

Nearby Weather Stations